Historyczne dane pomiarowe

Dodano dane terminowe – wersja testowa.

Dane z okresu 1951-2019

Wersja bazy: 1.34 [2019-03-16, lista zmian], aktualizacja planowana na 2019-04-15

Dane meteo z obszaru Polski uzyskane na podstawie danych udostępnionych przez Instytut Meteorologii i Gospodarki Wodnej – Państwowy Instytut Badawczy.

 

Wybierz Datę:    

       

TemperaturaWilgotnośćWiatrCiśnienieOpadyŚniegCzas trwania zjawisk
 Stacja t tx tn tng RH VA  wxwx mslp ppp RRR   cm mm wxwxwxwxwxwxwx
2019-06-13 27.2 34.4 21.3 19.2-- 4.3 3.0---- 6.4------------
2019-06-12 27.6 34.4 20.7 18.9-- 1.0 4.0---- 0.0------------
2019-06-11 27.2 33.5 20.4 18.2-- 0.0 3.3---- 0.0------------
2019-06-10 23.9 31.1 16.1 12.2-- 2.7 4.0---- 0.0------------
2019-06-09 21.8 27.1 16.0 13.3-- 0.0 2.0---- 0.0------------
2019-06-08 23.5 29.2 17.8 14.8-- 5.0 3.0---- 0.0------------
2019-06-07 23.3 29.5 16.6 15.8-- 3.7 2.7---- 0.0------------
2019-06-06 23.6 29.4 18.1 16.6-- 2.7 4.0---- 0.0------------
2019-06-05 24.3 29.6 18.0 13.8-- 2.0 3.7---- 0.0------------
2019-06-04 23.7 30.5 16.3 12.1-- 0.3 3.0---- 0.0------------
2019-06-03 22.2 28.4 15.1 11.0-- 0.3 2.0---- 0.0------------
2019-06-02 21.8 28.0 14.1 11.5-- 4.0 3.0---- 4.4------------
2019-06-01 20.2 25.0 14.9 11.9-- 3.0 2.7---- 0.0------------
2019-05-31 17.9 24.2 9.0 5.6-- 2.3 2.7---- 0.0------------
2019-05-30 13.7 20.1 6.6 4.8-- 2.3 1.7---- 0.0------------
2019-05-29 13.3 16.5 10.8 10.7-- 7.3 3.3---- 0.0------------
2019-05-28 18.3 24.6 15.7 14.7-- 5.3 1.7---- 13.0------------
2019-05-27 20.3 26.8 12.9 10.0-- 5.3 3.3---- 1.7------------
2019-05-26 16.3 21.6 10.2 7.8-- 6.0 4.0---- 0.0------------
2019-05-25 18.1 24.2 12.4 9.1-- 2.0 4.0---- 0.0------------
2019-05-24 16.4 21.3 11.6 10.8-- 6.3 3.0---- 0.0------------
2019-05-23 16.9 21.3 13.1 10.7-- 7.0 3.0---- 0.7------------
2019-05-22 15.8 19.9 11.7 10.3-- 7.3 2.7---- 0.9------------
2019-05-21 18.2 23.2 14.0 13.4-- 5.3 3.3---- 1.0------------
2019-05-20 19.8 26.1 15.8 13.9-- 5.0 3.0---- 3.5------------
2019-05-19 18.7 23.6 15.0 14.7-- 7.7 3.0---- 1.3------------
2019-05-18 18.0 24.9 13.8 10.8-- 7.7 3.0---- 14.8------------
2019-05-17 17.3 22.1 13.9 12.7-- 7.0 2.0---- 16.0------------
2019-05-16 15.4 18.6 12.4 12.4-- 8.0 2.0---- 11.0------------
2019-05-15 10.2 12.4 7.3 7.4-- 7.7 2.7---- 11.2------------
2019-05-14 7.2 8.6 6.0 6.1-- 8.0 3.3---- 5.0------------
2019-05-13 8.5 11.5 6.9 7.0-- 8.0 2.7---- 2.0------------
2019-05-12 15.1 25.0 10.6 5.9-- 8.0 3.0---- 2.7------------
2019-05-11 14.5 20.2 9.9 5.6-- 6.0 3.3---- 0.0------------
2019-05-10 12.7 17.1 9.1 8.6-- 5.7 2.0---- 0.3------------
2019-05-09 12.6 19.0 7.4 5.2-- 5.0 4.7---- 0.2------------
2019-05-08 10.4 15.6 3.5 -1.5-- 3.0 3.3---- 0.0------------
2019-05-07 9.8 14.5 5.0 3.3-- 4.7 3.7---- 0.0------------
2019-05-06 9.0 14.8 3.4 1.5-- 7.3 3.7---- 0.0------------
2019-05-05 7.8 12.6 4.2 4.5-- 7.7 3.7---- 0.0------------
2019-05-04 10.1 15.6 4.4 0.0-- 6.7 2.7---- 0.7------------
2019-05-03 10.5 14.7 8.2 8.1-- 6.0 4.7---- 0.0------------
2019-05-02 12.0 15.6 10.1 9.5-- 5.7 8.0---- 0.5------------
2019-05-01 13.5 20.4 8.5 2.9-- 4.7 3.3---- 0.0------------
2019-04-30 15.2 20.8 10.4 5.5-- 2.7 2.0---- 0.0------------
2019-04-29 15.8 23.3 10.9 10.9-- 6.7 3.0---- 0.1------------
2019-04-28 11.5 13.0 10.8 11.0-- 8.0 3.3---- 0.3------------
2019-04-27 16.2 22.7 12.8 9.2-- 6.3 5.7---- 0.0------------
2019-04-26 20.2 29.0 12.7 8.0-- 0.0 2.0---- 0.0------------
2019-04-25 18.9 25.9 12.9 11.1-- 4.0 3.0---- 0.0------------
2019-04-24 15.2 21.0 9.2 7.4-- 1.7 5.7---- 0.0------------
2019-04-23 14.0 19.9 8.0 4.7-- 0.0 6.7---- 0.0------------
2019-04-22 11.5 18.1 5.8 5.2-- 4.3 4.3---- 0.0------------
2019-04-21 10.8 18.1 7.4 6.5-- 6.7 4.7---- 0.9------------
2019-04-20 13.0 19.5 6.9 0.4-- 3.3 2.0---- 0.0------------
2019-04-19 14.3 21.3 8.4 4.6-- 0.3 2.0---- 0.0------------
2019-04-18 13.8 21.4 7.0 1.0-- 0.3 1.7---- 0.0------------
2019-04-17 11.7 19.9 4.5 2.1-- 1.3 2.7---- 0.0------------
2019-04-16 6.0 11.8 1.5 -3.1-- 4.7 2.7---- 1.1------------
2019-04-15 7.2 13.2 1.8 -0.9-- 1.0 2.3---- 0.0------------
165.3 ms

 

Źródłem pochodzenia danych jest Instytut Meteorologii i Gospodarki Wodnej – Państwowy Instytut Badawczy. Dane Instytutu Meteorologii i Gospodarki Wodnej – Państwowego Instytutu Badawczego zostały przetworzone.

Dane źródłowe można odnaleźć na stronie https://dane.imgw.pl